プラハ の空港の天気 - METARとTAF

ルズィニエ国際空港(プラハ) ( LKPR / PRG ) - チェコ プラハ
飛行場実況気象(Metar)
観測時間09/20 23:30 CEST (09/20 21:30 UTC)
風向・風速南 4m/s
視程10km以上
天気現象
なし
気温19℃
湿度56%
気圧1017hPa
METARLKPR 202130Z 19007KT CAVOK 19/10 Q1017 NOSIG
過去の天気等 Google飛行場航空写真 Wunderground天気予報

過去48時間のMETAR

飛行場予報(TAF)
発表時間: 9/20 19:00 CEST (9/20 17:00 UTC)
予報対象時間: 20日20時 CEST ~ 22日2時 CEST
風向・風速南 4m/s
視程10km以上
なし
21日11時 CEST ~ 22日2時 CEST に一時的に
風向・風速南西 8m/s 瞬間風速 13m/s
21日17時 CEST ~ 21日21時 CEST に 確率 30% で一時的に
全天の4割程度の塔状積雲 雲底高度 1830m
TAF LKPR 201700Z 2018/2200 19007KT CAVOK
TEMPO 2109/2200 23015G25KT
PROB30 TEMPO 2115/2119 SCT060TCU